Report METAR

 

KSJC - San Jose, California, USA
Distance from station: NE 14km
Dati ricevuti: 28/10/2020 09:53
DATI Obsoleti
Sereno
Sereno
 Vento da ESE
Vento: ESE 6 km/h
Temperatura: 13°C
P.to Rugiada: -1°C
Umidità: 38%
Barometro: 1018.6 hPa
Nuvole: Sereno
Visibility: 16 km
2020/10/28 08:53 KSJC 280853Z AUTO 12003KT 10SM CLR 13/M01 A3008 RMK AO2 SLP184 T01331011 52005
KNUQ - Moffett Nas/Mtn, California, USA
Distance from station: N 14km
Dati ricevuti: 28/10/2020 11:30
Coperto
Coperto
 Vento da calmo
Vento: Calma
Temperatura: 10°C
P.to Rugiada: 2°C
Umidità: 58%
Barometro: 1018.3 hPa
Nuvole: Coperto
Visibility: 16 km
Cloud details: Few Clouds 640 m
Molto nuvoloso 1006 m
Coperto 1158 m
2020/10/28 10:30 KNUQ 281030Z AUTO 00000KT 10SM FEW021 BKN033 OVC038 10/02 A3007 RMK AO2
KPAO - Palo Alto, California, USA
Distance from station: NNO 23km
Dati ricevuti: 28/10/2020 02:47
DATI Obsoleti
Sereno
Sereno
 Vento da calmo
Vento: Calma
Temperatura: 18°C
P.to Rugiada: 6°C
Umidità: 46%
Barometro: 1016.9 hPa
Nuvole: Sereno
Visibility: 16 km
2020/10/28 01:47 KPAO 280147Z 00000KT 10SM SKC 18/06 A3003 RMK LAST
 
KRHV - San Jose/Reid, California, USA
Distance from station: ENE 19km
Dati ricevuti: 28/10/2020 05:50
DATI Obsoleti
Sereno
Sereno
 Vento da calmo
Vento: Calma
Temperatura: 16°C
P.to Rugiada: -1°C
Umidità: 31%
Barometro: 1017.9 hPa
Nuvole: Sereno
Visibility: 16 km
2020/10/28 04:50 KRHV 280450Z 00000KT 10SM SKC 16/M01 A3006
KOAK - Oakland, California, USA
Distance from station: NNO 50km
Dati ricevuti: 28/10/2020 09:53
DATI Obsoleti
Sereno
Sereno
 Vento da calmo
Vento: Calma
Temperatura: 16°C
P.to Rugiada: 2°C
Umidità: 39%
Barometro: 1018.6 hPa
Nuvole: Sereno
Visibility: 16 km
2020/10/28 08:53 KOAK 280853Z 00000KT 10SM CLR 16/02 A3008 RMK AO2 SLP185 T01560017 53006
KSQL - San Carlos Airpo, California, USA
Distance from station: NO 34km
Dati ricevuti: 28/10/2020 09:35
DATI Obsoleti
Sereno
Sereno
 Vento da calmo
Vento: Calma
Temperatura: 13°C
P.to Rugiada: 0°C
Umidità: 41%
Barometro: 1018.6 hPa
Nuvole: Sereno
Visibility: 16 km
2020/10/28 08:35 KSQL 280835Z AUTO 00000KT 10SM CLR 13/00 A3008 RMK AO2
 
KSFO - San Francisco, California, USA
Distance from station: NO 49km
Dati ricevuti: 28/10/2020 09:56
DATI Obsoleti
Sereno
Sereno
 Vento da NO
Vento: NO 7 km/h
Temperatura: 14°C
P.to Rugiada: 4°C
Umidità: 51%
Barometro: 1018.6 hPa
Nuvole: Sereno
Visibility: 16 km
2020/10/28 08:56 KSFO 280856Z 32004KT 10SM CLR 14/04 A3008 RMK AO2 SLP184 T01440044 53008
KE16 - San Martin, California, USA
Distance from station: ESE 43km
Dati ricevuti: 28/10/2020 09:55
DATI Obsoleti
Coperto
Coperto
 Vento da calmo
Vento: Calma
Temperatura: 8°C
P.to Rugiada: -3°C
Umidità: 46%
Barometro: 1020 hPa
Nuvole: Coperto
Visibility: 16 km
Cloud details: Coperto 1219 m
2020/10/28 08:55 KE16 280855Z AUTO 00000KT 10SM OVC040 08/M03 A3012 RMK AO2
KWVI - Watsonville, California, USA
Distance from station: SSE 44km
Dati ricevuti: 28/10/2020 09:53
DATI Obsoleti
Sereno
Sereno
 Vento da calmo
Vento: Calma
Temperatura: 9°C
P.to Rugiada: 2°C
Umidità: 62%
Barometro: 1019.3 hPa
Nuvole: Sereno
Visibility: 16 km
2020/10/28 08:53 KWVI 280853Z AUTO 00000KT 10SM CLR 09/02 A3010 RMK AO2 SLP191 T00940017 53002
 
KHAF - Half Moon Bay, California, USA
Distance from station: ONO 50km
Dati ricevuti: 28/10/2020 09:55
DATI Obsoleti
Few Clouds
Few Clouds
 Vento da calmo
Vento: Calma
Temperatura: 8°C
P.to Rugiada: 2°C
Umidità: 66%
Barometro: 1019 hPa
Nuvole: Few Clouds
Visibility: 16 km
Cloud details: Few Clouds 1280 m
2020/10/28 08:55 KHAF 280855Z AUTO 00000KT 10SM FEW042 08/02 A3009 RMK AO2
KHWD - Hayward, California, USA
Distance from station: N 44km
Dati ricevuti: 28/10/2020 09:54
DATI Obsoleti
Sereno
Sereno
 Vento da E
Vento: E 7 km/h
Temperatura: 14°C
P.to Rugiada: -2°C
Umidità: 33%
Barometro: 1018.6 hPa
Nuvole: Sereno
Visibility: 16 km
2020/10/28 08:54 KHWD 280854Z AUTO 08004KT 10SM CLR 14/M02 A3008 RMK AO2 SLP193 T01391022 53006
KLVK - Livermore, California, USA
Distance from station: NNE 51km
Dati ricevuti: 28/10/2020 09:53
DATI Obsoleti
Sereno
Sereno
 Vento da calmo
Vento: Calma
Temperatura: 9°C
P.to Rugiada: -4°C
Umidità: 40%
Barometro: 1018.6 hPa
Nuvole: Sereno
Visibility: 16 km
2020/10/28 08:53 KLVK 280853Z AUTO 00000KT 10SM CLR 09/M04 A3008 RMK AO2 SLP184 T00941039 52005